createdAt,value
2019-05-10T00:00:11.768Z,8.70
2019-05-10T00:05:32.355Z,8.70
2019-05-10T00:10:35.283Z,8.67
2019-05-10T00:15:36.963Z,8.66
2019-05-10T00:20:38.442Z,8.62
2019-05-10T00:25:40.426Z,8.61
2019-05-10T00:30:42.006Z,8.63
2019-05-10T00:35:43.774Z,8.66
2019-05-10T00:40:45.311Z,8.70
2019-05-10T00:45:46.883Z,8.73
2019-05-10T00:50:48.386Z,8.70
2019-05-10T00:55:49.950Z,8.67
2019-05-10T01:01:22.413Z,8.71
2019-05-10T01:06:23.891Z,8.76
2019-05-10T01:11:25.514Z,8.77
2019-05-10T01:16:27.119Z,8.80
2019-05-10T01:21:28.594Z,8.72
2019-05-10T01:26:30.179Z,8.67
2019-05-10T01:31:31.816Z,8.69
2019-05-10T01:36:33.342Z,8.68
2019-05-10T01:41:35.039Z,8.63
2019-05-10T01:46:36.569Z,8.55
2019-05-10T01:51:38.157Z,8.49
2019-05-10T01:56:39.974Z,8.38
2019-05-10T02:01:41.443Z,8.34
2019-05-10T02:06:42.958Z,8.33
2019-05-10T02:11:44.428Z,8.28
2019-05-10T02:16:45.967Z,8.29
2019-05-10T02:21:47.452Z,8.26
2019-05-10T02:26:49.056Z,8.22
2019-05-10T02:31:50.638Z,8.17
2019-05-10T02:36:52.352Z,8.07
2019-05-10T02:41:53.934Z,8.02
2019-05-10T02:46:55.755Z,7.98
2019-05-10T02:51:57.242Z,7.95
2019-05-10T02:57:02.035Z,7.93
2019-05-10T03:02:05.025Z,7.90
2019-05-10T03:07:06.793Z,7.87
2019-05-10T03:12:24.691Z,7.85
2019-05-10T03:17:27.369Z,7.86
2019-05-10T03:22:34.683Z,7.85
2019-05-10T03:27:36.972Z,7.84
2019-05-10T03:32:38.577Z,7.85
2019-05-10T03:37:40.684Z,7.87
2019-05-10T03:42:42.623Z,7.85
2019-05-10T03:47:44.118Z,7.88
2019-05-10T03:52:51.678Z,7.93
2019-05-10T03:57:50.376Z,8.01
2019-05-10T04:02:52.060Z,8.11
2019-05-10T04:07:53.531Z,8.24
2019-05-10T04:12:55.064Z,8.40
2019-05-10T04:17:56.826Z,8.60
2019-05-10T04:22:58.389Z,8.81
2019-05-10T04:27:59.863Z,8.97
2019-05-10T04:33:01.431Z,9.12
2019-05-10T04:38:03.149Z,9.26
2019-05-10T04:43:04.641Z,9.37
2019-05-10T04:48:06.196Z,9.51
2019-05-10T04:53:07.827Z,9.64
2019-05-10T04:58:09.289Z,9.79
2019-05-10T05:03:10.755Z,9.91
2019-05-10T05:08:12.232Z,10.10
2019-05-10T05:13:13.709Z,10.25
2019-05-10T05:18:15.230Z,10.36
2019-05-10T05:23:16.743Z,10.47
2019-05-10T05:28:22.542Z,10.58
2019-05-10T05:33:21.631Z,10.76
2019-05-10T05:38:23.163Z,10.96
2019-05-10T05:43:24.649Z,11.21
2019-05-10T05:48:39.561Z,11.49
2019-05-10T05:53:29.575Z,11.78
2019-05-10T05:58:31.046Z,12.07
2019-05-10T06:03:32.631Z,12.30
2019-05-10T06:08:34.119Z,12.39
2019-05-10T06:13:35.600Z,12.65
2019-05-10T06:18:41.649Z,12.78
2019-05-10T06:23:40.535Z,13.05
2019-05-10T06:28:58.593Z,13.36
2019-05-10T06:33:46.834Z,13.51
2019-05-10T06:38:48.536Z,13.56
2019-05-10T06:43:51.423Z,13.90
2019-05-10T06:48:53.597Z,14.13
2019-05-10T06:53:55.093Z,14.05
2019-05-10T06:59:12.004Z,14.05
2019-05-10T07:03:59.943Z,14.47
2019-05-10T07:09:01.417Z,14.52
2019-05-10T07:14:04.607Z,14.68
2019-05-10T07:19:06.253Z,14.53
2019-05-10T07:24:07.931Z,14.50
2019-05-10T07:29:09.494Z,14.16
2019-05-10T07:34:15.826Z,14.39
2019-05-10T07:39:14.435Z,14.60
2019-05-10T07:44:15.962Z,14.39
2019-05-10T07:49:17.470Z,14.92
2019-05-10T07:54:18.993Z,14.90
2019-05-10T07:59:22.090Z,15.02
2019-05-10T08:04:29.121Z,15.43
2019-05-10T08:09:31.479Z,15.68
2019-05-10T08:14:30.592Z,15.50
2019-05-10T08:19:32.677Z,15.02
2019-05-10T08:24:35.684Z,14.87
2019-05-10T08:29:37.370Z,15.11
2019-05-10T08:34:39.486Z,15.21
2019-05-10T08:39:47.910Z,15.34
2019-05-10T08:44:45.989Z,15.11
2019-05-10T08:50:06.461Z,14.94
2019-05-10T08:54:54.955Z,14.98
2019-05-10T09:00:06.587Z,14.96
2019-05-10T09:04:57.867Z,15.05
2019-05-10T09:10:02.079Z,15.00
2019-05-10T09:15:09.710Z,15.04
2019-05-10T09:20:12.043Z,15.48
2019-05-10T09:25:13.359Z,15.83
2019-05-10T09:30:29.556Z,16.53
2019-05-10T09:35:33.100Z,16.49
2019-05-10T09:40:34.821Z,16.67
2019-05-10T09:45:36.475Z,16.30
2019-05-10T09:50:44.920Z,16.25
2019-05-10T09:55:45.655Z,16.54
2019-05-10T10:00:48.346Z,16.25
2019-05-10T10:05:49.068Z,16.41
2019-05-10T10:10:50.716Z,16.13
2019-05-10T10:15:52.643Z,15.86
2019-05-10T10:20:54.570Z,15.72
2019-05-10T10:25:57.980Z,15.83
2019-05-10T10:31:05.308Z,15.81
2019-05-10T10:36:07.474Z,15.98
2019-05-10T10:41:08.323Z,15.98
2019-05-10T10:46:12.391Z,16.24
2019-05-10T10:51:13.626Z,16.54
2019-05-10T10:56:17.469Z,16.84
2019-05-10T11:01:24.736Z,16.45
2019-05-10T11:06:21.935Z,16.06
2019-05-10T11:11:23.412Z,15.70
2019-05-10T11:16:24.881Z,15.44
2019-05-10T11:21:28.770Z,15.21
2019-05-10T11:26:32.849Z,14.99
2019-05-10T11:31:33.397Z,14.59
2019-05-10T11:36:35.063Z,14.45
2019-05-10T11:41:36.544Z,14.49
2019-05-10T11:46:41.465Z,14.56
2019-05-10T11:51:42.571Z,14.71
2019-05-10T11:56:44.067Z,14.91
2019-05-10T12:01:54.827Z,14.92
2019-05-10T12:06:51.292Z,15.18
2019-05-10T12:11:56.464Z,15.33
2019-05-10T12:16:56.438Z,15.11
2019-05-10T12:21:57.910Z,14.96
2019-05-10T12:27:17.318Z,14.90
2019-05-10T12:32:03.083Z,14.88
2019-05-10T12:37:08.291Z,15.04
2019-05-10T12:42:08.192Z,15.97
2019-05-10T12:47:11.326Z,16.50
2019-05-10T12:52:14.049Z,16.96
2019-05-10T12:57:16.566Z,16.94
2019-05-10T13:02:18.292Z,16.51
2019-05-10T13:07:19.815Z,15.86
2019-05-10T13:12:21.419Z,15.14
2019-05-10T13:17:22.886Z,14.51
2019-05-10T13:22:24.362Z,14.06
2019-05-10T13:27:25.947Z,13.61
2019-05-10T13:32:27.423Z,13.28
2019-05-10T13:37:29.507Z,12.86
2019-05-10T13:42:36.805Z,12.44
2019-05-10T13:47:34.610Z,12.23
2019-05-10T13:52:38.823Z,12.06
2019-05-10T13:57:39.494Z,11.99
2019-05-10T14:02:41.069Z,11.96
2019-05-10T14:07:50.277Z,11.91
2019-05-10T14:12:46.377Z,11.95
2019-05-10T14:17:47.913Z,11.94
2019-05-10T14:22:55.856Z,11.91
2019-05-10T14:27:52.928Z,11.89
2019-05-10T14:32:54.403Z,11.74
2019-05-10T14:38:07.199Z,11.51
2019-05-10T14:42:59.363Z,11.34
2019-05-10T14:48:00.895Z,11.34
2019-05-10T14:53:02.622Z,11.36
2019-05-10T14:58:04.354Z,11.39
2019-05-10T15:03:05.819Z,11.43
2019-05-10T15:08:07.297Z,11.48
2019-05-10T15:13:08.891Z,11.55
2019-05-10T15:18:10.503Z,11.57
2019-05-10T15:23:12.338Z,11.61
2019-05-10T15:28:13.912Z,11.71
2019-05-10T15:33:15.395Z,11.87
2019-05-10T15:38:16.886Z,12.08
2019-05-10T15:43:25.287Z,12.36
2019-05-10T15:48:26.814Z,12.76
2019-05-10T15:53:28.331Z,13.16
2019-05-10T15:58:30.648Z,13.52
2019-05-10T16:03:33.661Z,13.82
2019-05-10T16:08:35.137Z,13.90
2019-05-10T16:13:36.671Z,13.89
2019-05-10T16:18:40.126Z,13.86
2019-05-10T16:23:46.759Z,13.79
2019-05-10T16:28:45.375Z,13.76
2019-05-10T16:33:48.150Z,13.66
2019-05-10T16:38:50.624Z,13.56
2019-05-10T16:43:58.119Z,13.42
2019-05-10T16:48:55.638Z,13.37
2019-05-10T16:53:57.140Z,13.25
2019-05-10T16:58:59.593Z,13.12
2019-05-10T17:04:01.816Z,12.97
2019-05-10T17:09:09.387Z,12.79
2019-05-10T17:14:12.559Z,12.59
2019-05-10T17:19:13.294Z,12.52
2019-05-10T17:24:18.596Z,12.46
2019-05-10T17:29:19.284Z,12.43
2019-05-10T17:34:29.018Z,12.37
2019-05-10T17:39:26.016Z,12.34
2019-05-10T17:44:27.627Z,12.28
2019-05-10T17:49:29.385Z,12.20
2019-05-10T17:54:33.668Z,12.20
2019-05-10T17:59:34.294Z,12.14
2019-05-10T18:04:35.796Z,12.11
2019-05-10T18:09:37.282Z,12.08
2019-05-10T18:14:38.915Z,12.00
2019-05-10T18:19:40.579Z,11.97
2019-05-10T18:24:42.451Z,11.94
2019-05-10T18:29:44.143Z,11.89
2019-05-10T18:34:47.335Z,11.88
2019-05-10T18:39:52.921Z,11.84
2019-05-10T18:44:54.237Z,11.81
2019-05-10T18:49:55.955Z,11.75
2019-05-10T18:54:57.443Z,11.72
2019-05-10T18:59:58.960Z,11.68
2019-05-10T19:05:01.010Z,11.66
2019-05-10T19:10:05.609Z,11.67
2019-05-10T19:15:09.984Z,11.67
2019-05-10T19:20:16.339Z,11.65
2019-05-10T19:25:16.203Z,11.59
2019-05-10T19:30:20.561Z,11.55
2019-05-10T19:35:22.283Z,11.49
2019-05-10T19:40:23.976Z,11.42
2019-05-10T19:45:25.715Z,11.35
2019-05-10T19:50:30.925Z,11.31
2019-05-10T19:55:30.583Z,11.30
2019-05-10T20:00:32.410Z,11.25
2019-05-10T20:05:34.108Z,11.19
2019-05-10T20:10:35.606Z,11.14
2019-05-10T20:15:37.179Z,11.08
2019-05-10T20:20:38.646Z,11.00
2019-05-10T20:25:40.268Z,10.95
2019-05-10T20:30:41.784Z,10.87
2019-05-10T20:35:44.363Z,10.82
2019-05-10T20:40:46.059Z,10.74
2019-05-10T20:45:47.635Z,10.69
2019-05-10T20:50:49.151Z,10.65
2019-05-10T20:55:50.633Z,10.59
2019-05-10T21:00:52.313Z,10.57
2019-05-10T21:05:53.782Z,10.53
2019-05-10T21:10:55.255Z,10.48
2019-05-10T21:15:56.832Z,10.47
2019-05-10T21:20:58.328Z,10.48
2019-05-10T21:25:59.807Z,10.45
2019-05-10T21:31:01.366Z,10.47
2019-05-10T21:36:02.922Z,10.43
2019-05-10T21:41:04.507Z,10.39
2019-05-10T21:46:05.979Z,10.36
2019-05-10T21:51:07.463Z,10.32
2019-05-10T21:56:09.312Z,10.31
2019-05-10T22:01:11.086Z,10.32
2019-05-10T22:06:12.879Z,10.33
2019-05-10T22:11:15.459Z,10.26
2019-05-10T22:16:17.141Z,10.23
2019-05-10T22:21:18.687Z,10.22
2019-05-10T22:26:20.230Z,10.14
2019-05-10T22:31:21.695Z,10.10
2019-05-10T22:36:23.222Z,10.01
2019-05-10T22:41:24.799Z,10.00
2019-05-10T22:46:26.274Z,9.97
2019-05-10T22:51:27.963Z,9.94
2019-05-10T22:56:29.526Z,9.90
2019-05-10T23:01:31.112Z,9.88
2019-05-10T23:06:33.062Z,9.85
2019-05-10T23:11:34.635Z,9.80
2019-05-10T23:16:36.104Z,9.73
2019-05-10T23:21:37.670Z,9.69
2019-05-10T23:26:39.199Z,9.64
2019-05-10T23:31:40.890Z,9.58
2019-05-10T23:36:42.469Z,9.64
2019-05-10T23:41:44.056Z,9.69
2019-05-10T23:46:45.634Z,9.71
2019-05-10T23:51:47.110Z,9.82
2019-05-10T23:56:48.594Z,9.84
